Ana Sayfa
METAR-TAF:

METAR-TAF

Havaalanları :

Lincolnton-Lincoln County Regional Airport

Lincolnton, Kuzey Carolina, Amerika Birleşik Devletleri

Enlem: 35-28-59N, Boylam: 081-09-41W, yükseklik: 267 m

Güncel hava durumu gözlemi

Rapor saat 18:55 UTC de 18 dakika önce yapıldı.
Rüzgar güneybatıdan 6 kt
Sıcaklık 28°C
Nem 62%
Basınç 1014 hPa
Görüş mesafesi: 16.1 km
2900 ft yükseklikte parçalı bulutlu
3900 ft yükseklikte parçalı bulutlu
4800 ft yükseklikte parçalı çok bulutlu

METAR: KIPJ 051855Z AUTO 23006KT 10SM SCT029 SCT039 BKN048 28/20 A2993 RMK AO2 T02840199

Saat: 15:13 (19:13 UTC)


TAF: eksik

4.000'den fazla havaalanı için hava durumu gözlemleri ve tahminleri (METAR ve TAF raporları).

Kullanılabilir istasyonlar harita üzerinde sarı ve kırmızı noktalarla gösterilir.

İstasyonun adını görmek için fareyi noktanın üzerinde gezdirin.

Sonrasında hava gözlem ve tahminlerini görmek için tıklayın.

Haritayı değiştirmek için: yaklaştırmak için siyah artı işaretli yeşil düğmeye ve uzaklaştırmak için de eksi işaretli düğmeye hızla tıklayın; bitişik haritalar için yeşil okları kullanın.


METAR-TAF: